createdAt,value
2018-08-01T00:00:56.218Z,99.99
2018-08-01T00:01:56.222Z,99.99
2018-08-01T00:02:56.476Z,99.99
2018-08-01T00:03:56.491Z,99.99
2018-08-01T00:04:56.476Z,99.99
2018-08-01T00:05:56.481Z,99.99
2018-08-01T00:06:56.481Z,99.99
2018-08-01T00:07:56.476Z,99.99
2018-08-01T00:08:56.219Z,99.99
2018-08-01T00:09:56.473Z,99.99
2018-08-01T00:10:56.222Z,99.99
2018-08-01T00:11:56.477Z,99.99
2018-08-01T00:12:56.476Z,99.99
2018-08-01T00:13:56.477Z,99.99
2018-08-01T00:14:56.483Z,99.99
2018-08-01T00:15:56.475Z,99.99
2018-08-01T00:16:56.477Z,99.99
2018-08-01T00:17:56.481Z,99.99
2018-08-01T00:18:56.477Z,99.99
2018-08-01T00:19:56.473Z,99.99
2018-08-01T00:20:56.476Z,99.99
2018-08-01T00:21:56.221Z,99.99
2018-08-01T00:22:56.474Z,99.99
2018-08-01T00:23:56.480Z,99.99
2018-08-01T00:24:56.478Z,99.99
2018-08-01T00:25:56.221Z,99.99
2018-08-01T00:26:56.476Z,99.99
2018-08-01T00:27:56.474Z,99.99
2018-08-01T00:28:56.479Z,99.99
2018-08-01T00:29:56.474Z,99.99
2018-08-01T00:30:56.476Z,99.99
2018-08-01T00:31:56.219Z,99.99
2018-08-01T00:32:56.473Z,99.99
2018-08-01T00:33:56.476Z,99.99
2018-08-01T00:34:56.475Z,99.99
2018-08-01T00:35:56.473Z,99.99
2018-08-01T00:36:56.473Z,99.99
2018-08-01T00:37:56.477Z,99.99
2018-08-01T00:38:56.218Z,99.99
2018-08-01T00:39:56.475Z,99.99
2018-08-01T00:40:56.475Z,99.99
2018-08-01T00:41:56.471Z,99.99
2018-08-01T00:42:56.473Z,99.99
2018-08-01T00:43:56.482Z,99.99
2018-08-01T00:44:56.482Z,99.99
2018-08-01T00:45:56.477Z,99.99
2018-08-01T00:46:56.471Z,99.99
2018-08-01T00:47:56.472Z,99.99
2018-08-01T00:48:56.473Z,99.99
2018-08-01T00:49:56.470Z,99.99
2018-08-01T00:50:56.215Z,99.99
2018-08-01T00:51:56.473Z,99.99
2018-08-01T00:52:56.215Z,99.99
2018-08-01T00:53:56.214Z,99.99
2018-08-01T00:54:56.214Z,99.99
2018-08-01T00:55:56.469Z,99.99
2018-08-01T00:56:56.514Z,99.99
2018-08-01T00:57:56.467Z,99.99
2018-08-01T00:58:56.472Z,99.99
2018-08-01T00:59:56.465Z,99.99
2018-08-01T01:00:56.470Z,99.99
2018-08-01T01:01:56.469Z,99.99
2018-08-01T01:02:56.466Z,99.99
2018-08-01T01:03:56.210Z,99.99
2018-08-01T01:04:56.474Z,99.99
2018-08-01T01:05:56.467Z,99.99
2018-08-01T01:06:56.208Z,99.99
2018-08-01T01:07:56.463Z,99.99
2018-08-01T01:08:56.207Z,99.99
2018-08-01T01:09:56.464Z,99.99
2018-08-01T01:10:56.206Z,99.99
2018-08-01T01:11:56.461Z,99.99
2018-08-01T01:12:56.465Z,99.99
2018-08-01T01:13:56.460Z,99.99
2018-08-01T01:14:56.459Z,99.99
2018-08-01T01:15:56.205Z,99.99
2018-08-01T01:16:56.204Z,99.99
2018-08-01T01:17:56.456Z,99.99
2018-08-01T01:18:56.458Z,99.99
2018-08-01T01:19:56.455Z,99.99
2018-08-01T01:20:56.453Z,99.99
2018-08-01T01:21:56.456Z,99.99
2018-08-01T01:22:56.452Z,99.99
2018-08-01T01:23:56.460Z,99.99
2018-08-01T01:24:56.455Z,99.99
2018-08-01T01:25:56.457Z,99.99
2018-08-01T01:26:56.454Z,99.99
2018-08-01T01:27:56.455Z,99.99
2018-08-01T01:28:56.452Z,99.99
2018-08-01T01:29:56.462Z,99.99
2018-08-01T01:30:56.198Z,99.99
2018-08-01T01:31:56.454Z,99.99
2018-08-01T01:32:56.571Z,99.99
2018-08-01T01:33:56.448Z,99.99
2018-08-01T01:34:56.192Z,99.99
2018-08-01T01:35:56.451Z,99.99
2018-08-01T01:36:56.446Z,99.99
2018-08-01T01:37:56.443Z,99.99
2018-08-01T01:38:56.446Z,99.99
2018-08-01T01:39:56.445Z,99.99
2018-08-01T01:40:56.444Z,99.99
2018-08-01T01:41:56.186Z,99.99
2018-08-01T01:42:56.441Z,99.99
2018-08-01T01:43:56.441Z,99.99
2018-08-01T01:44:56.442Z,99.99
2018-08-01T01:45:56.441Z,99.99
2018-08-01T01:46:56.445Z,99.99
2018-08-01T01:47:56.549Z,99.99
2018-08-01T01:48:56.435Z,99.99
2018-08-01T01:49:56.181Z,99.99
2018-08-01T01:50:56.438Z,99.99
2018-08-01T01:51:56.437Z,99.99
2018-08-01T01:52:56.437Z,99.99
2018-08-01T01:53:56.432Z,99.99
2018-08-01T01:54:56.432Z,99.99
2018-08-01T01:55:56.431Z,99.99
2018-08-01T01:56:56.428Z,99.99
2018-08-01T01:57:56.430Z,99.99
2018-08-01T01:58:56.425Z,99.99
2018-08-01T01:59:56.428Z,99.99
2018-08-01T02:00:56.426Z,99.99
2018-08-01T02:01:56.428Z,99.99
2018-08-01T02:02:56.169Z,99.99
2018-08-01T02:03:56.423Z,99.99
2018-08-01T02:04:56.420Z,99.99
2018-08-01T02:05:56.421Z,99.99
2018-08-01T02:06:56.421Z,99.99
2018-08-01T02:07:56.165Z,99.99
2018-08-01T02:08:56.424Z,99.99
2018-08-01T02:09:56.426Z,99.99
2018-08-01T02:10:56.415Z,99.99
2018-08-01T02:11:56.423Z,99.99
2018-08-01T02:12:56.416Z,99.99
2018-08-01T02:13:56.417Z,99.99
2018-08-01T02:14:56.414Z,99.99
2018-08-01T02:15:56.417Z,99.99
2018-08-01T02:16:56.414Z,99.99
2018-08-01T02:17:56.413Z,99.99
2018-08-01T02:18:56.157Z,99.99
2018-08-01T02:19:56.508Z,99.99
2018-08-01T02:20:56.409Z,99.99
2018-08-01T02:21:56.152Z,99.99
2018-08-01T02:22:56.409Z,99.99
2018-08-01T02:23:56.406Z,99.99
2018-08-01T02:24:56.407Z,99.99
2018-08-01T02:25:56.410Z,99.99
2018-08-01T02:26:56.148Z,99.99
2018-08-01T02:27:56.405Z,99.99
2018-08-01T02:28:56.399Z,99.99
2018-08-01T02:29:56.403Z,99.99
2018-08-01T02:30:56.406Z,99.99
2018-08-01T02:31:56.406Z,99.99
2018-08-01T02:32:56.405Z,99.99
2018-08-01T02:33:56.142Z,99.99
2018-08-01T02:34:56.396Z,99.99
2018-08-01T02:35:56.406Z,99.99
2018-08-01T02:36:56.143Z,99.99
2018-08-01T02:37:56.400Z,99.99
2018-08-01T02:38:56.389Z,99.99
2018-08-01T02:39:56.133Z,99.99
2018-08-01T02:40:56.390Z,99.99
2018-08-01T02:41:56.389Z,99.99
2018-08-01T02:42:56.388Z,99.99
2018-08-01T02:43:56.401Z,99.99
2018-08-01T02:44:56.389Z,99.99
2018-08-01T02:45:56.383Z,99.99
2018-08-01T02:46:56.388Z,99.99
2018-08-01T02:47:56.381Z,99.99
2018-08-01T02:48:56.381Z,99.99
2018-08-01T02:49:56.125Z,99.99
2018-08-01T02:50:56.376Z,99.99
2018-08-01T02:51:56.378Z,99.99
2018-08-01T02:52:56.375Z,99.99
2018-08-01T02:53:56.375Z,99.99
2018-08-01T02:54:56.369Z,99.99
2018-08-01T02:55:56.375Z,99.99
2018-08-01T02:56:56.371Z,99.99
2018-08-01T02:57:56.373Z,99.99
2018-08-01T02:58:56.364Z,99.99
2018-08-01T02:59:56.367Z,99.99
2018-08-01T03:00:56.365Z,99.99
2018-08-01T03:01:56.378Z,99.99
2018-08-01T03:02:56.361Z,99.99
2018-08-01T03:03:56.371Z,99.99
2018-08-01T03:04:56.102Z,99.99
2018-08-01T03:05:56.356Z,99.99
2018-08-01T03:06:56.354Z,99.99
2018-08-01T03:07:56.353Z,99.99
2018-08-01T03:08:56.355Z,99.99
2018-08-01T03:09:56.355Z,99.49
2018-08-01T03:10:56.347Z,98.72
2018-08-01T03:11:56.351Z,99.11
2018-08-01T03:12:56.346Z,99.01
2018-08-01T03:13:56.091Z,99.99
2018-08-01T03:14:56.343Z,99.78
2018-08-01T03:15:56.345Z,97.28
2018-08-01T03:16:56.085Z,97.67
2018-08-01T03:17:56.342Z,97.28
2018-08-01T03:18:56.340Z,99.06
2018-08-01T03:19:56.336Z,99.99
2018-08-01T03:20:56.341Z,99.59
2018-08-01T03:21:56.333Z,99.99
2018-08-01T03:22:56.332Z,99.44
2018-08-01T03:23:56.331Z,98.19
2018-08-01T03:24:56.073Z,98.68
2018-08-01T03:25:56.342Z,99.15
2018-08-01T03:26:56.329Z,98.96
2018-08-01T03:27:56.326Z,98.39
2018-08-01T03:28:56.321Z,98.29
2018-08-01T03:29:56.322Z,97.14
2018-08-01T03:30:56.317Z,95.7
2018-08-01T03:31:56.319Z,94.64
2018-08-01T03:32:56.313Z,93.77
2018-08-01T03:33:56.316Z,93.49
2018-08-01T03:34:56.067Z,91.95
2018-08-01T03:35:56.307Z,91.18
2018-08-01T03:36:56.084Z,92.81
2018-08-01T03:37:56.051Z,93.87
2018-08-01T03:38:56.303Z,92.81
2018-08-01T03:39:56.308Z,92.91
2018-08-01T03:40:56.299Z,92.05
2018-08-01T03:41:56.299Z,92.81
2018-08-01T03:42:56.301Z,92.81
2018-08-01T03:43:56.295Z,92.14
2018-08-01T03:44:56.295Z,91.42
2018-08-01T03:45:56.293Z,89.02
2018-08-01T03:46:56.290Z,88.54
2018-08-01T03:47:56.289Z,89.69
2018-08-01T03:48:56.293Z,90.08
2018-08-01T03:49:56.290Z,90.94
2018-08-01T03:50:56.283Z,88.35
2018-08-01T03:51:56.283Z,86.72
2018-08-01T03:52:56.377Z,86.14
2018-08-01T03:53:56.280Z,86.14
2018-08-01T03:54:56.021Z,86.33
2018-08-01T03:55:56.274Z,85.66
2018-08-01T03:56:56.272Z,85.66
2018-08-01T03:57:56.273Z,84.22
2018-08-01T03:58:56.012Z,86.62
2018-08-01T03:59:56.267Z,86.91
2018-08-01T04:00:56.009Z,86.62
2018-08-01T04:01:56.264Z,86.91
2018-08-01T04:02:56.262Z,86.05
2018-08-01T04:03:56.266Z,86.14
2018-08-01T04:04:56.002Z,86.33
2018-08-01T04:05:56.258Z,87.01
2018-08-01T04:06:56.252Z,87.39
2018-08-01T04:07:56.260Z,87.01
2018-08-01T04:08:55.997Z,84.8
2018-08-01T04:09:56.247Z,84.12
2018-08-01T04:10:55.990Z,81.05
2018-08-01T04:11:56.249Z,79.22
2018-08-01T04:12:56.242Z,78.94
2018-08-01T04:13:55.986Z,77.78
2018-08-01T04:14:56.242Z,78.65
2018-08-01T04:15:56.238Z,79.03
2018-08-01T04:16:56.234Z,79.03
2018-08-01T04:17:56.233Z,78.75
2018-08-01T04:18:56.235Z,77.4
2018-08-01T04:19:56.226Z,75.48
2018-08-01T04:20:55.967Z,73.85
2018-08-01T04:21:56.223Z,74.08
2018-08-01T04:22:56.226Z,74.08
2018-08-01T04:23:56.220Z,74.17
2018-08-01T04:24:56.222Z,73.21
2018-08-01T04:25:55.960Z,71.48
2018-08-01T04:26:56.272Z,71.19
2018-08-01T04:27:55.955Z,71
2018-08-01T04:28:56.213Z,71
2018-08-01T04:29:56.216Z,70.14
2018-08-01T04:30:56.204Z,69.56
2018-08-01T04:31:56.209Z,69.27
2018-08-01T04:32:56.224Z,68.7
2018-08-01T04:33:56.202Z,68.79
2018-08-01T04:34:55.942Z,68.89
2018-08-01T04:35:56.195Z,67.54
2018-08-01T04:36:56.195Z,66.49
2018-08-01T04:37:56.200Z,65.91
2018-08-01T04:38:56.193Z,65.14
2018-08-01T04:39:55.939Z,64.18
2018-08-01T04:40:56.190Z,63.89
2018-08-01T04:41:56.184Z,63.79
2018-08-01T04:42:56.185Z,64.47
2018-08-01T04:43:56.180Z,62.58
2018-08-01T04:44:56.178Z,61.52
2018-08-01T04:45:56.178Z,61.61
2018-08-01T04:46:56.177Z,61.81
2018-08-01T04:47:56.172Z,61.52
2018-08-01T04:48:56.179Z,62
2018-08-01T04:49:56.168Z,61.61
2018-08-01T04:50:56.167Z,62.48
2018-08-01T04:51:56.166Z,62.48
2018-08-01T04:52:55.909Z,62.96
2018-08-01T04:53:55.905Z,62.58
2018-08-01T04:54:56.165Z,63.45
2018-08-01T04:55:55.904Z,64.12
2018-08-01T04:56:56.159Z,64.22
2018-08-01T04:57:56.157Z,65.4
2018-08-01T04:58:56.156Z,65.88
2018-08-01T04:59:56.151Z,67.42
2018-08-01T05:00:56.155Z,67.32
2018-08-01T05:01:56.153Z,67.99
2018-08-01T05:02:56.155Z,69.24
2018-08-01T05:03:56.144Z,69.82
2018-08-01T05:04:56.147Z,70.59
2018-08-01T05:05:55.895Z,70.88
2018-08-01T05:06:56.148Z,71.46
2018-08-01T05:07:56.143Z,71.78
2018-08-01T05:08:56.148Z,72.84
2018-08-01T05:09:56.146Z,74.57
2018-08-01T05:10:56.138Z,76.21
2018-08-01T05:11:56.133Z,78.61
2018-08-01T05:12:56.133Z,78.71
2018-08-01T05:13:56.139Z,79.96
2018-08-01T05:14:56.175Z,80.92
2018-08-01T05:15:55.873Z,81.98
2018-08-01T05:16:56.128Z,82.85
2018-08-01T05:17:56.126Z,83.72
2018-08-01T05:18:56.126Z,83.81
2018-08-01T05:19:55.872Z,84.14
2018-08-01T05:20:55.868Z,84.43
2018-08-01T05:21:56.125Z,84.72
2018-08-01T05:22:56.124Z,85
2018-08-01T05:23:56.192Z,86.16
2018-08-01T05:24:55.864Z,86.83
2018-08-01T05:25:56.122Z,87.51
2018-08-01T05:26:55.863Z,87.8
2018-08-01T05:27:55.862Z,88.18
2018-08-01T05:28:56.116Z,88.57
2018-08-01T05:29:56.121Z,90.01
2018-08-01T05:30:55.858Z,89.92
2018-08-01T05:31:56.114Z,88.67
2018-08-01T05:32:56.117Z,87.8
2018-08-01T05:33:56.110Z,86.93
2018-08-01T05:34:56.110Z,87.22
2018-08-01T05:35:56.129Z,86.02
2018-08-01T05:36:56.108Z,86.35
2018-08-01T05:37:56.109Z,86.02
2018-08-01T05:38:56.107Z,85.25
2018-08-01T05:39:56.108Z,84.58
2018-08-01T05:40:56.105Z,83.91
2018-08-01T05:41:56.107Z,84.29
2018-08-01T05:42:56.112Z,83.33
2018-08-01T05:43:55.844Z,82.85
2018-08-01T05:44:56.106Z,81.79
2018-08-01T05:45:55.842Z,82.27
2018-08-01T05:46:56.099Z,83.14
2018-08-01T05:47:56.100Z,84.48
2018-08-01T05:48:56.104Z,84.87
2018-08-01T05:49:56.099Z,85.54
2018-08-01T05:50:56.212Z,83.72
2018-08-01T05:51:56.097Z,83.81
2018-08-01T05:52:56.094Z,85.74
2018-08-01T05:53:55.838Z,86.6
2018-08-01T05:54:56.104Z,86.79
2018-08-01T05:55:56.100Z,86.89
2018-08-01T05:56:55.842Z,86.12
2018-08-01T05:57:56.095Z,87.27
2018-08-01T05:58:56.087Z,87.8
2018-08-01T05:59:56.085Z,89.34
2018-08-01T06:00:56.085Z,90.78
2018-08-01T06:01:55.828Z,91.94
2018-08-01T06:02:56.083Z,94.44
2018-08-01T06:03:56.103Z,95.31
2018-08-01T06:04:56.089Z,97.91
2018-08-01T06:05:56.080Z,96.85
2018-08-01T06:06:56.080Z,95.5
2018-08-01T06:07:56.081Z,95.36
2018-08-01T06:08:56.080Z,97.42
2018-08-01T06:09:55.821Z,96.99
2018-08-01T06:10:56.077Z,96.99
2018-08-01T06:11:56.091Z,96.66
2018-08-01T06:12:56.076Z,95.84
2018-08-01T06:13:56.075Z,95.64
2018-08-01T06:14:55.818Z,96.89
2018-08-01T06:15:56.079Z,97.09
2018-08-01T06:16:56.072Z,97.09
2018-08-01T06:17:56.076Z,97.86
2018-08-01T06:18:56.080Z,98.24
2018-08-01T06:19:56.069Z,97.67
2018-08-01T06:20:55.815Z,99.88
2018-08-01T06:21:55.816Z,99.99
2018-08-01T06:22:56.081Z,99.99
2018-08-01T06:23:56.084Z,99.02
2018-08-01T06:24:56.075Z,99.99
2018-08-01T06:25:56.072Z,99.98
2018-08-01T06:26:56.067Z,99.4
2018-08-01T06:27:56.191Z,99.99
2018-08-01T06:28:56.091Z,99.99
2018-08-01T06:29:56.083Z,99.99
2018-08-01T06:30:56.069Z,99.99
2018-08-01T06:31:56.065Z,99.99
2018-08-01T06:32:56.065Z,99.99
2018-08-01T06:33:56.061Z,99.99
2018-08-01T06:34:55.809Z,99.99
2018-08-01T06:35:56.062Z,99.99
2018-08-01T06:36:56.063Z,99.99
2018-08-01T06:37:56.065Z,99.99
2018-08-01T06:38:56.066Z,99.99
2018-08-01T06:39:56.062Z,99.99
2018-08-01T06:40:56.061Z,99.99
2018-08-01T06:41:56.063Z,99.99
2018-08-01T06:42:56.066Z,99.99
2018-08-01T06:43:56.064Z,99.99
2018-08-01T06:44:56.060Z,99.99
2018-08-01T06:45:56.059Z,99.99
2018-08-01T06:46:56.176Z,99.99
2018-08-01T06:47:56.062Z,99.99
2018-08-01T06:48:56.060Z,99.99
2018-08-01T06:49:55.802Z,99.99
2018-08-01T06:50:56.060Z,99.99
2018-08-01T06:51:56.062Z,99.99
2018-08-01T06:52:56.057Z,99.99
2018-08-01T06:53:56.174Z,99.99
2018-08-01T06:54:56.060Z,99.99
2018-08-01T06:55:56.061Z,99.99
2018-08-01T06:56:56.061Z,99.99
2018-08-01T06:57:56.063Z,99.99
2018-08-01T06:58:56.063Z,99.99
2018-08-01T06:59:56.065Z,92.67
2018-08-01T07:00:56.061Z,83.06
2018-08-01T07:01:56.066Z,78.54
2018-08-01T07:02:56.066Z,71.72
2018-08-01T07:03:55.815Z,66.21
2018-08-01T07:04:56.073Z,62.45
2018-08-01T07:05:56.074Z,60.63
2018-08-01T07:06:56.361Z,60.66
2018-08-01T07:07:56.084Z,58.06
2018-08-01T07:08:56.082Z,54.58
2018-08-01T07:09:56.092Z,52.26
2018-08-01T07:10:56.095Z,49.76
2018-08-01T07:11:56.095Z,49.37
2018-08-01T07:12:56.106Z,48.39
2018-08-01T07:13:56.103Z,47.92
2018-08-01T07:14:56.270Z,48.49
2018-08-01T07:15:56.111Z,47.34
2018-08-01T07:16:56.128Z,48.02
2018-08-01T07:17:56.126Z,46.39
2018-08-01T07:18:56.124Z,46
2018-08-01T07:19:56.126Z,46.29
2018-08-01T07:20:56.134Z,45.7
2018-08-01T07:21:56.138Z,44.43
2018-08-01T07:22:56.146Z,44.53
2018-08-01T07:23:56.153Z,44.63
2018-08-01T07:24:56.154Z,43.95
2018-08-01T07:25:56.164Z,44.55
2018-08-01T07:26:56.166Z,43.67
2018-08-01T07:27:56.287Z,43.49
2018-08-01T07:28:55.919Z,42.61
2018-08-01T07:29:56.210Z,42.42
2018-08-01T07:30:56.192Z,42.81
2018-08-01T07:31:56.200Z,42.52
2018-08-01T07:32:56.202Z,41.86
2018-08-01T07:33:56.212Z,41.39
2018-08-01T07:34:56.218Z,40.41
2018-08-01T07:35:55.968Z,40.9
2018-08-01T07:36:56.228Z,40.7
2018-08-01T07:37:56.241Z,41.27
2018-08-01T07:38:55.984Z,42.05
2018-08-01T07:39:55.993Z,41.39
2018-08-01T07:40:56.256Z,40.11
2018-08-01T07:41:56.263Z,40.31
2018-08-01T07:42:56.496Z,40.21
2018-08-01T07:43:56.292Z,40.31
2018-08-01T07:44:56.287Z,40.01
2018-08-01T07:45:56.290Z,40.11
2018-08-01T07:46:56.301Z,41.09
2018-08-01T07:47:56.304Z,40.03
2018-08-01T07:48:56.311Z,38.88
2018-08-01T07:49:56.506Z,38.59
2018-08-01T07:50:56.073Z,37.81
2018-08-01T07:51:56.380Z,37.9
2018-08-01T07:52:56.087Z,37.61
2018-08-01T07:53:56.361Z,37.39
2018-08-01T07:54:56.361Z,37.88
2018-08-01T07:55:56.108Z,37.79
2018-08-01T07:56:56.382Z,37.49
2018-08-01T07:57:56.381Z,37.29
2018-08-01T07:58:56.388Z,37.49
2018-08-01T07:59:56.391Z,37.79
2018-08-01T08:00:56.400Z,37.59
2018-08-01T08:01:56.410Z,37.29
2018-08-01T08:02:56.412Z,37.59
2018-08-01T08:03:56.418Z,37.88
2018-08-01T08:04:56.425Z,38.84
2018-08-01T08:05:56.177Z,39.04
2018-08-01T08:06:56.438Z,39.8
2018-08-01T08:07:56.444Z,41.64
2018-08-01T08:08:56.452Z,42.77
2018-08-01T08:09:56.205Z,46
2018-08-01T08:10:56.220Z,46.17
2018-08-01T08:11:56.470Z,46.56
2018-08-01T08:12:56.219Z,45.85
2018-08-01T08:13:56.482Z,44.38
2018-08-01T08:14:56.485Z,45.15
2018-08-01T08:15:56.491Z,47.25
2018-08-01T08:16:56.498Z,48.32
2018-08-01T08:17:56.500Z,52.38
2018-08-01T08:18:56.514Z,50.41
2018-08-01T08:19:56.520Z,50.51
2018-08-01T08:20:56.262Z,52.33
2018-08-01T08:21:56.528Z,51.82
2018-08-01T08:22:56.529Z,53.38
2018-08-01T08:23:56.534Z,55.32
2018-08-01T08:24:56.539Z,53.83
2018-08-01T08:25:56.287Z,55.49
2018-08-01T08:26:56.551Z,57.04
2018-08-01T08:27:56.299Z,56.26
2018-08-01T08:28:56.560Z,59.74
2018-08-01T08:29:56.569Z,57.6
2018-08-01T08:30:56.618Z,56.82
2018-08-01T08:31:56.573Z,56.82
2018-08-01T08:32:56.577Z,55.46
2018-08-01T08:33:56.582Z,56.3
2018-08-01T08:34:56.590Z,58.64
2018-08-01T08:35:56.591Z,59.61
2018-08-01T08:36:56.709Z,61.74
2018-08-01T08:37:56.598Z,61.16
2018-08-01T08:38:56.608Z,63.91
2018-08-01T08:39:56.610Z,70.12
2018-08-01T08:40:56.613Z,61.48
2018-08-01T08:41:56.361Z,57.79
2018-08-01T08:42:56.366Z,56.82
2018-08-01T08:43:56.630Z,57.69
2018-08-01T08:44:56.376Z,59.05
2018-08-01T08:45:56.638Z,57.5
2018-08-01T08:46:56.642Z,58.76
2018-08-01T08:47:56.644Z,58.57
2018-08-01T08:48:56.504Z,65.66
2018-08-01T08:49:56.660Z,63.32
2018-08-01T08:50:56.659Z,57.92
2018-08-01T08:51:56.661Z,59.18
2018-08-01T08:52:56.668Z,61.71
2018-08-01T08:53:56.489Z,61.51
2018-08-01T08:54:56.755Z,63.75
2018-08-01T08:55:56.678Z,62.68
2018-08-01T08:56:56.683Z,57.85
2018-08-01T08:57:56.684Z,60.18
2018-08-01T08:58:56.690Z,59.99
2018-08-01T08:59:56.694Z,58.43
2018-08-01T09:00:56.445Z,57.46
2018-08-01T09:01:56.709Z,61.47
2018-08-01T09:02:56.710Z,58.75
2018-08-01T09:03:56.711Z,54.28
2018-08-01T09:04:56.715Z,52.72
2018-08-01T09:05:56.724Z,55.83
2018-08-01T09:06:56.730Z,56.61
2018-08-01T09:07:56.475Z,56.03
2018-08-01T09:08:56.735Z,52.14
2018-08-01T09:09:56.739Z,53.4
2018-08-01T09:10:56.489Z,54.47
2018-08-01T09:11:56.495Z,55.54
2018-08-01T09:12:56.754Z,54.28
2018-08-01T09:13:56.761Z,52.53
2018-08-01T09:14:56.778Z,51.36
2018-08-01T09:15:56.770Z,51.84
2018-08-01T09:16:56.778Z,51.84
2018-08-01T09:17:56.783Z,52.36
2018-08-01T09:18:56.532Z,52.43
2018-08-01T09:19:56.787Z,54.11
2018-08-01T09:20:56.546Z,54.69
2018-08-01T09:21:56.800Z,54.21
2018-08-01T09:22:56.804Z,54.6
2018-08-01T09:23:56.552Z,53.42
2018-08-01T09:24:56.557Z,52.67
2018-08-01T09:25:56.817Z,51.51
2018-08-01T09:26:56.819Z,50.53
2018-08-01T09:27:56.570Z,52.75
2018-08-01T09:28:56.832Z,50.53
2018-08-01T09:29:56.581Z,51.09
2018-08-01T09:30:56.843Z,49.05
2018-08-01T09:31:56.844Z,49.34
2018-08-01T09:32:56.854Z,52.65
2018-08-01T09:33:56.622Z,53.62
2018-08-01T09:34:56.863Z,54.11
2018-08-01T09:35:56.867Z,50.6
2018-08-01T09:36:56.870Z,50.8
2018-08-01T09:37:56.617Z,52.75
2018-08-01T09:38:56.879Z,52.65
2018-08-01T09:39:56.885Z,52.09
2018-08-01T09:40:56.959Z,50.73
2018-08-01T09:41:56.897Z,50.92
2018-08-01T09:42:56.899Z,51.02
2018-08-01T09:43:56.904Z,51.41
2018-08-01T09:44:56.915Z,51.31
2018-08-01T09:45:56.661Z,51.21
2018-08-01T09:46:56.920Z,51.41
2018-08-01T09:47:56.923Z,50.16
2018-08-01T09:48:56.930Z,50.46
2018-08-01T09:49:56.934Z,49.27
2018-08-01T09:50:56.942Z,50.92
2018-08-01T09:51:56.950Z,52.38
2018-08-01T09:52:57.303Z,51.02
2018-08-01T09:53:56.813Z,54.91
2018-08-01T09:54:58.389Z,52.8
2018-08-01T09:55:58.883Z,49.78
2018-08-01T09:56:57.176Z,48.12
2018-08-01T09:57:56.982Z,51.04
2018-08-01T09:58:56.727Z,49.88
2018-08-01T09:59:56.986Z,49.88
2018-08-01T10:00:56.992Z,49.29
2018-08-01T10:01:57.091Z,50.56
2018-08-01T10:02:57.003Z,50.46
2018-08-01T10:03:57.008Z,49.19
2018-08-01T10:04:57.014Z,49.19
2018-08-01T10:05:57.029Z,49.88
2018-08-01T10:06:57.027Z,50.65
2018-08-01T10:07:57.033Z,49.12
2018-08-01T10:08:57.037Z,47.56
2018-08-01T10:09:57.040Z,49.51
2018-08-01T10:10:57.051Z,48.73
2018-08-01T10:11:57.056Z,48.83
2018-08-01T10:12:56.803Z,49.51
2018-08-01T10:13:57.073Z,49.9
2018-08-01T10:14:56.813Z,47.36
2018-08-01T10:15:57.074Z,47.66
2018-08-01T10:16:56.831Z,47.27
2018-08-01T10:17:57.083Z,47.68
2018-08-01T10:18:57.090Z,47.68
2018-08-01T10:19:57.105Z,47.39
2018-08-01T10:20:57.143Z,47.09
2018-08-01T10:21:57.109Z,46.31
2018-08-01T10:22:57.115Z,45.05
2018-08-01T10:23:57.121Z,45.34
2018-08-01T10:24:57.126Z,46.22
2018-08-01T10:25:56.875Z,48.07
2018-08-01T10:26:57.350Z,44.46
2018-08-01T10:27:57.142Z,44.56
2018-08-01T10:28:57.149Z,46.12
2018-08-01T10:29:56.906Z,47
2018-08-01T10:30:57.160Z,44.85
2018-08-01T10:31:57.172Z,44.27
2018-08-01T10:32:57.175Z,44.37
2018-08-01T10:33:56.927Z,45.51
2018-08-01T10:34:57.186Z,45.83
2018-08-01T10:35:57.195Z,47.09
2018-08-01T10:36:57.193Z,46.31
2018-08-01T10:37:57.202Z,44.76
2018-08-01T10:38:57.207Z,44.44
2018-08-01T10:39:56.956Z,46.61
2018-08-01T10:40:57.219Z,46.31
2018-08-01T10:41:57.232Z,45.73
2018-08-01T10:42:57.327Z,47.68
2018-08-01T10:43:56.982Z,47.27
2018-08-01T10:44:57.244Z,45.25
2018-08-01T10:45:57.024Z,45.83
2018-08-01T10:46:57.255Z,47.29
2018-08-01T10:47:57.259Z,47.29
2018-08-01T10:48:57.266Z,46.41
2018-08-01T10:49:57.274Z,47.12
2018-08-01T10:50:57.470Z,47.19
2018-08-01T10:51:57.283Z,47.12
2018-08-01T10:52:57.294Z,46.53
2018-08-01T10:53:57.417Z,46.14
2018-08-01T10:54:57.306Z,44.29
2018-08-01T10:55:57.053Z,45.36
2018-08-01T10:56:57.316Z,44.78
2018-08-01T10:57:57.329Z,45.26
2018-08-01T10:58:57.326Z,44.97
2018-08-01T10:59:57.332Z,44.97
2018-08-01T11:00:57.350Z,43.9
2018-08-01T11:01:57.344Z,41.17
2018-08-01T11:02:57.355Z,41.73
2018-08-01T11:03:57.102Z,42.22
2018-08-01T11:04:57.123Z,42.8
2018-08-01T11:05:57.369Z,43
2018-08-01T11:06:57.375Z,42.51
2018-08-01T11:07:57.124Z,40.86
2018-08-01T11:08:57.388Z,41.91
2018-08-01T11:09:57.137Z,42.4
2018-08-01T11:10:57.143Z,42.69
2018-08-01T11:11:57.407Z,42.79
2018-08-01T11:12:57.410Z,43.57
2018-08-01T11:13:57.416Z,42.69
2018-08-01T11:14:57.424Z,42.41
2018-08-01T11:15:57.432Z,42.51
2018-08-01T11:16:57.435Z,42.22
2018-08-01T11:17:57.728Z,42.9
2018-08-01T11:18:57.447Z,43
2018-08-01T11:19:57.449Z,43.1
2018-08-01T11:20:57.456Z,42.8
2018-08-01T11:21:57.544Z,42.8
2018-08-01T11:22:57.470Z,43.78
2018-08-01T11:23:57.221Z,43.29
2018-08-01T11:24:57.480Z,43.59
2018-08-01T11:25:57.233Z,43.1
2018-08-01T11:26:57.490Z,43.68
2018-08-01T11:27:57.499Z,43.59
2018-08-01T11:28:57.544Z,42.73
2018-08-01T11:29:57.509Z,42.63
2018-08-01T11:30:57.513Z,42.73
2018-08-01T11:31:57.521Z,42.44
2018-08-01T11:32:57.530Z,42.34
2018-08-01T11:33:57.537Z,42.34
2018-08-01T11:34:57.540Z,41.95
2018-08-01T11:35:57.551Z,42.05
2018-08-01T11:36:57.557Z,41.17
2018-08-01T11:37:57.566Z,41.95
2018-08-01T11:38:57.568Z,41.36
2018-08-01T11:39:57.571Z,40.68
2018-08-01T11:40:57.577Z,40.48
2018-08-01T11:41:57.327Z,41.17
2018-08-01T11:42:57.588Z,43.12
2018-08-01T11:43:57.340Z,44.29
2018-08-01T11:44:57.606Z,44.09
2018-08-01T11:45:57.605Z,44.97
2018-08-01T11:46:57.358Z,44.78
2018-08-01T11:47:57.619Z,42.73
2018-08-01T11:48:57.627Z,42.24
2018-08-01T11:49:57.708Z,42.63
2018-08-01T11:50:57.639Z,43.68
2018-08-01T11:51:57.646Z,44.37
2018-08-01T11:52:57.654Z,44.56
2018-08-01T11:53:57.652Z,42.34
2018-08-01T11:54:57.679Z,42.73
2018-08-01T11:55:57.686Z,44.87
2018-08-01T11:56:57.792Z,44.19
2018-08-01T11:57:57.681Z,43.51
2018-08-01T11:58:57.689Z,43.61
2018-08-01T11:59:57.697Z,43.02
2018-08-01T12:00:57.700Z,43
2018-08-01T12:01:57.840Z,44.37
2018-08-01T12:02:57.714Z,45.25
2018-08-01T12:03:57.461Z,44.27
2018-08-01T12:04:57.724Z,43.02
2018-08-01T12:05:57.476Z,43.39
2018-08-01T12:06:57.481Z,42.22
2018-08-01T12:07:57.745Z,42.71
2018-08-01T12:08:57.751Z,44.27
2018-08-01T12:09:57.498Z,43.49
2018-08-01T12:10:57.506Z,44.37
2018-08-01T12:11:57.515Z,44.27
2018-08-01T12:12:57.517Z,44.17
2018-08-01T12:13:57.780Z,45.25
2018-08-01T12:14:57.910Z,45.44
2018-08-01T12:15:57.793Z,44.27
2018-08-01T12:16:57.799Z,44.85
2018-08-01T12:17:57.805Z,42.71
2018-08-01T12:18:57.810Z,43.19
2018-08-01T12:19:57.559Z,44.17
2018-08-01T12:20:57.826Z,42.41
2018-08-01T12:21:57.834Z,43.27
2018-08-01T12:22:57.581Z,44.44
2018-08-01T12:23:57.584Z,44.24
2018-08-01T12:24:57.843Z,44.05
2018-08-01T12:25:57.851Z,44.24
2018-08-01T12:26:57.858Z,44.24
2018-08-01T12:27:57.866Z,44.44
2018-08-01T12:28:57.868Z,44.15
2018-08-01T12:29:57.620Z,42.49
2018-08-01T12:30:57.626Z,44.23
2018-08-01T12:31:57.890Z,44.13
2018-08-01T12:32:57.895Z,44.52
2018-08-01T12:33:57.645Z,44.23
2018-08-01T12:34:57.909Z,45.88
2018-08-01T12:35:57.912Z,45.2
2018-08-01T12:36:57.917Z,44.93
2018-08-01T12:37:57.924Z,44.24
2018-08-01T12:38:57.674Z,44.23
2018-08-01T12:39:57.681Z,43.25
2018-08-01T12:40:57.684Z,44.23
2018-08-01T12:41:58.019Z,44.52
2018-08-01T12:42:57.698Z,46.34
2018-08-01T12:43:57.972Z,45.08
2018-08-01T12:44:57.966Z,44.4
2018-08-01T12:45:57.973Z,45.67
2018-08-01T12:46:57.975Z,45.67
2018-08-01T12:47:57.979Z,45.94
2018-08-01T12:48:58.121Z,47.39
2018-08-01T12:49:57.993Z,47.2
2018-08-01T12:50:58.001Z,47.1
2018-08-01T12:51:57.747Z,46.42
2018-08-01T12:52:57.753Z,47
2018-08-01T12:53:58.023Z,46.64
2018-08-01T12:54:58.023Z,47.22